Time;durP1;ratioP1;P1;durP2;ratioP2;P2;SDS_P1;SDS_P2;PMS_P1;PMS_P2;Temp;Humidity;BMP_temperature;BMP_pressure;BME280_temperature;BME280_humidity;BME280_pressure;Samples;Min_cycle;Max_cycle;Signal;HPM_P1;HPM_P2
2023/12/18 00:00:04;;;;;;;16.60;2.42;;;10.20;99.90;;;;;;5071157;28;20051;-64
2023/12/18 00:02:31;;;;;;;14.13;2.15;;;10.20;99.90;;;;;;5070211;28;20049;-64
2023/12/18 00:04:58;;;;;;;10.60;2.28;;;10.20;99.90;;;;;;5068361;28;20941;-65
2023/12/18 00:07:26;;;;;;;8.98;1.80;;;10.20;99.90;;;;;;5054513;28;20067;-64
2023/12/18 00:09:53;;;;;;;12.38;2.38;;;10.20;99.90;;;;;;5070943;28;20048;-65
2023/12/18 00:12:20;;;;;;;15.90;2.38;;;10.20;99.90;;;;;;5074999;28;20161;-65
2023/12/18 00:14:47;;;;;;;9.80;2.30;;;10.20;99.90;;;;;;5073883;28;20539;-64
2023/12/18 00:17:14;;;;;;;10.18;1.83;;;10.20;99.90;;;;;;5067013;28;20535;-64
2023/12/18 00:19:41;;;;;;;14.80;2.10;;;10.20;99.90;;;;;;5044936;28;20538;-66
2023/12/18 00:22:08;;;;;;;8.27;1.65;;;10.20;99.90;;;;;;5066194;28;20332;-65
2023/12/18 00:24:35;;;;;;;11.75;2.08;;;10.20;99.90;;;;;;5062470;28;20052;-65
2023/12/18 00:27:02;;;;;;;9.88;2.35;;;10.20;99.90;;;;;;5054275;28;20040;-65
2023/12/18 00:29:29;;;;;;;8.73;2.53;;;10.20;99.90;;;;;;5056628;28;20047;-64
2023/12/18 00:31:56;;;;;;;16.60;2.58;;;10.20;99.90;;;;;;5066057;28;20106;-65
2023/12/18 00:34:23;;;;;;;9.55;1.67;;;10.20;99.90;;;;;;5064008;28;20036;-64
2023/12/18 00:36:49;;;;;;;12.95;1.92;;;10.20;99.90;;;;;;5064355;28;20104;-64
2023/12/18 00:39:16;;;;;;;11.27;1.42;;;10.20;99.90;;;;;;5046878;28;20048;-64
2023/12/18 00:41:43;;;;;;;15.18;2.83;;;10.20;99.90;;;;;;5064789;28;20048;-65
2023/12/18 00:44:10;;;;;;;12.02;1.75;;;10.20;99.90;;;;;;5078893;28;20453;-64
2023/12/18 00:46:37;;;;;;;12.82;2.15;;;10.20;99.90;;;;;;5064091;28;20075;-65
2023/12/18 00:49:04;;;;;;;14.30;2.10;;;10.20;99.90;;;;;;5046804;28;20114;-64
2023/12/18 00:51:31;;;;;;;16.10;1.80;;;10.20;99.90;;;;;;5065082;28;20296;-65
2023/12/18 00:53:57;;;;;;;10.63;2.10;;;10.20;99.90;;;;;;5064042;28;20140;-64
2023/12/18 00:56:24;;;;;;;12.15;1.67;;;10.20;99.90;;;;;;5065474;28;20047;-64
2023/12/18 00:58:51;;;;;;;22.20;4.70;;;10.20;99.90;;;;;;5064214;28;20065;-64
2023/12/18 01:01:18;;;;;;;5.85;1.52;;;10.20;99.90;;;;;;5065097;28;20051;-64
2023/12/18 01:03:45;;;;;;;11.50;2.58;;;10.20;99.90;;;;;;5066033;28;20056;-64
2023/12/18 01:06:12;;;;;;;18.75;2.60;;;10.20;99.90;;;;;;5065961;28;20087;-64
2023/12/18 01:08:39;;;;;;;11.77;2.67;;;10.20;99.90;;;;;;5066697;28;20151;-64
2023/12/18 01:11:05;;;;;;;8.77;1.55;;;10.10;99.90;;;;;;5072207;28;20089;-64
2023/12/18 01:13:32;;;;;;;14.02;2.15;;;10.10;99.90;;;;;;5069488;28;20056;-64
2023/12/18 01:15:59;;;;;;;7.50;1.65;;;10.10;99.90;;;;;;5064554;28;20194;-64
2023/12/18 01:18:26;;;;;;;9.45;2.00;;;10.10;99.90;;;;;;5072076;28;20044;-64
2023/12/18 01:20:53;;;;;;;11.05;2.38;;;10.00;99.90;;;;;;5069682;28;20091;-64
2023/12/18 01:23:20;;;;;;;10.73;1.80;;;10.00;99.90;;;;;;5068772;28;20448;-64
2023/12/18 01:25:47;;;;;;;9.18;2.00;;;10.00;99.90;;;;;;5068740;28;20491;-64
2023/12/18 01:28:14;;;;;;;9.88;1.67;;;10.00;99.90;;;;;;5061747;28;20060;-64
2023/12/18 01:30:40;;;;;;;13.57;2.80;;;9.90;99.90;;;;;;5069224;28;20048;-64
2023/12/18 01:33:07;;;;;;;14.77;2.00;;;9.90;99.90;;;;;;5071001;28;20048;-63
2023/12/18 01:35:35;;;;;;;4.78;1.23;;;9.90;99.90;;;;;;5068903;28;20053;-63
2023/12/18 01:38:01;;;;;;;7.65;1.50;;;9.90;99.90;;;;;;5058924;28;20053;-63
2023/12/18 01:40:28;;;;;;;14.45;2.13;;;9.80;99.90;;;;;;5068444;28;20086;-64
2023/12/18 01:42:55;;;;;;;8.15;1.80;;;9.80;99.90;;;;;;5078971;28;20106;-64
2023/12/18 01:45:22;;;;;;;20.08;5.13;;;9.80;99.90;;;;;;5068449;28;20040;-63
2023/12/18 01:47:49;;;;;;;12.52;2.20;;;9.70;99.90;;;;;;5065995;28;20056;-63
2023/12/18 01:50:15;;;;;;;6.63;1.65;;;9.70;99.90;;;;;;5068693;28;20075;-63
2023/12/18 01:52:42;;;;;;;12.93;1.83;;;9.70;99.90;;;;;;5068828;28;20083;-65
2023/12/18 01:55:09;;;;;;;8.63;1.65;;;9.70;99.90;;;;;;5050502;28;20174;-65
2023/12/18 01:57:36;;;;;;;8.25;1.80;;;9.70;99.90;;;;;;5051886;28;20045;-65
2023/12/18 02:00:03;;;;;;;10.43;1.70;;;9.70;99.90;;;;;;5069254;28;20196;-65
2023/12/18 02:02:32;;;;;;;9.57;2.00;;;9.70;99.90;;;;;;5019143;28;20063;-63
2023/12/18 02:04:59;;;;;;;10.48;1.90;;;9.70;99.90;;;;;;5067227;28;20057;-66
2023/12/18 02:07:26;;;;;;;11.48;1.75;;;9.60;99.90;;;;;;5072486;28;20056;-64
2023/12/18 02:09:53;;;;;;;9.23;1.80;;;9.60;99.90;;;;;;5050232;28;20063;-64
2023/12/18 02:12:20;;;;;;;7.47;1.45;;;9.60;99.90;;;;;;5074197;28;20048;-64
2023/12/18 02:14:46;;;;;;;12.45;2.58;;;9.60;99.90;;;;;;5068146;28;20123;-65
2023/12/18 02:17:13;;;;;;;12.75;1.83;;;9.60;99.90;;;;;;5083244;28;20055;-65
2023/12/18 02:19:40;;;;;;;13.23;2.88;;;9.60;99.90;;;;;;5068151;28;20443;-65
2023/12/18 02:22:07;;;;;;;11.35;2.03;;;9.70;99.90;;;;;;5075343;28;20056;-65
2023/12/18 02:24:34;;;;;;;9.70;1.70;;;9.60;99.90;;;;;;4716313;28;10000886;-65
2023/12/18 02:27:01;;;;;;;6.15;2.17;;;9.70;99.90;;;;;;5047205;28;20432;-64
2023/12/18 02:29:28;;;;;;;13.90;2.05;;;9.70;99.90;;;;;;5048364;28;20410;-65
2023/12/18 02:31:55;;;;;;;14.18;2.28;;;9.70;99.90;;;;;;5073261;28;20097;-64
2023/12/18 02:34:22;;;;;;;10.57;2.17;;;9.70;99.90;;;;;;5071180;28;20060;-65
2023/12/18 02:36:49;;;;;;;12.15;2.80;;;9.70;99.90;;;;;;5066414;28;20060;-65
2023/12/18 02:39:16;;;;;;;9.32;2.38;;;9.70;99.90;;;;;;5067348;28;20044;-65
2023/12/18 02:41:43;;;;;;;10.02;1.70;;;9.70;99.90;;;;;;5069149;28;20043;-65
2023/12/18 02:44:10;;;;;;;8.68;2.05;;;9.70;99.90;;;;;;5067649;28;20412;-65
2023/12/18 02:46:37;;;;;;;19.27;2.97;;;9.70;99.90;;;;;;5049396;28;20036;-64
2023/12/18 02:49:04;;;;;;;10.70;3.83;;;9.70;99.90;;;;;;5067772;28;20458;-64
2023/12/18 02:51:31;;;;;;;11.43;2.33;;;9.60;99.90;;;;;;5067222;28;20055;-65
2023/12/18 02:53:58;;;;;;;9.75;1.70;;;9.60;99.90;;;;;;5069478;28;20094;-65
2023/12/18 02:56:25;;;;;;;7.15;1.63;;;9.60;99.90;;;;;;5067153;28;20044;-64
2023/12/18 02:58:53;;;;;;;11.13;1.67;;;9.60;99.90;;;;;;5066403;28;20041;-64
2023/12/18 03:01:20;;;;;;;13.30;2.33;;;9.60;99.90;;;;;;5048991;28;20057;-65
2023/12/18 03:03:47;;;;;;;4.88;1.42;;;9.60;99.90;;;;;;5048836;28;20051;-64
2023/12/18 03:06:14;;;;;;;5.70;1.40;;;9.60;99.90;;;;;;5066924;28;20439;-64
2023/12/18 03:08:41;;;;;;;13.00;2.63;;;9.70;99.90;;;;;;5064803;28;20140;-65
2023/12/18 03:11:08;;;;;;;11.40;1.77;;;9.70;99.90;;;;;;5066514;28;20536;-65
2023/12/18 03:13:35;;;;;;;13.43;1.45;;;9.70;99.90;;;;;;5069493;28;20457;-65
2023/12/18 03:16:02;;;;;;;6.32;1.63;;;9.70;99.90;;;;;;5066793;28;20102;-65
2023/12/18 03:18:29;;;;;;;25.45;2.95;;;9.80;99.90;;;;;;5070182;28;20045;-65
2023/12/18 03:20:55;;;;;;;9.00;2.00;;;9.80;99.90;;;;;;5050876;28;20071;-65
2023/12/18 03:23:22;;;;;;;6.00;1.58;;;9.80;99.90;;;;;;5082696;28;20048;-65
2023/12/18 03:25:49;;;;;;;13.90;1.80;;;9.80;99.90;;;;;;5068653;28;20125;-65
2023/12/18 03:28:17;;;;;;;7.20;1.40;;;9.80;99.90;;;;;;5073881;28;20044;-65
2023/12/18 03:30:45;;;;;;;12.65;1.65;;;9.80;99.90;;;;;;5068242;28;20049;-65
2023/12/18 03:33:12;;;;;;;16.05;1.88;;;9.80;99.90;;;;;;5070828;28;20044;-65
2023/12/18 03:35:39;;;;;;;7.68;1.55;;;9.80;99.90;;;;;;5063597;28;20071;-65
2023/12/18 03:38:05;;;;;;;8.75;1.85;;;9.80;99.90;;;;;;5066494;28;20067;-65
2023/12/18 03:40:32;;;;;;;13.60;2.08;;;9.80;99.90;;;;;;5067065;28;20056;-64
2023/12/18 03:42:59;;;;;;;8.40;1.40;;;9.80;99.90;;;;;;5066404;28;20048;-65
2023/12/18 03:45:26;;;;;;;10.90;1.40;;;9.80;99.90;;;;;;5066226;28;20459;-65
2023/12/18 03:47:53;;;;;;;8.90;1.48;;;9.80;99.90;;;;;;5065815;28;20599;-65
2023/12/18 03:50:20;;;;;;;7.82;2.03;;;9.80;99.90;;;;;;5066330;28;20102;-65
2023/12/18 03:52:46;;;;;;;13.93;1.90;;;9.80;99.90;;;;;;5066196;28;20041;-65
2023/12/18 03:55:13;;;;;;;7.88;1.63;;;9.80;99.90;;;;;;5066298;28;20048;-65
2023/12/18 03:57:40;;;;;;;7.80;1.50;;;9.80;99.90;;;;;;5059235;28;20082;-65
2023/12/18 04:00:08;;;;;;;5.32;1.80;;;9.80;99.90;;;;;;5065938;28;20400;-64
2023/12/18 04:02:35;;;;;;;7.25;1.02;;;9.80;99.90;;;;;;5064685;28;20556;-64
2023/12/18 04:05:02;;;;;;;12.98;1.60;;;9.80;99.90;;;;;;5063888;28;20048;-65
2023/12/18 04:07:29;;;;;;;12.18;3.30;;;9.80;99.90;;;;;;5046552;28;20048;-64
2023/12/18 04:09:56;;;;;;;6.65;1.20;;;9.80;99.90;;;;;;5066625;28;20057;-65
2023/12/18 04:12:23;;;;;;;7.28;1.33;;;9.80;99.90;;;;;;5065743;28;20072;-65
2023/12/18 04:14:49;;;;;;;7.82;1.48;;;9.80;99.90;;;;;;5066278;28;20056;-64
2023/12/18 04:17:16;;;;;;;7.97;2.13;;;9.90;99.90;;;;;;5066476;28;20106;-63
2023/12/18 04:19:43;;;;;;;12.90;1.70;;;9.90;99.90;;;;;;5066065;28;20545;-61
2023/12/18 04:22:10;;;;;;;5.40;1.33;;;9.90;99.90;;;;;;5066164;28;20438;-66
2023/12/18 04:24:37;;;;;;;12.15;1.70;;;9.90;99.90;;;;;;5047721;28;20059;-65
2023/12/18 04:27:04;;;;;;;10.65;1.42;;;9.90;99.90;;;;;;5066707;28;20040;-64
2023/12/18 04:29:31;;;;;;;11.18;1.38;;;9.90;99.90;;;;;;5065622;28;20127;-65
2023/12/18 04:31:57;;;;;;;9.38;1.98;;;9.90;99.90;;;;;;5066112;28;20114;-64
2023/12/18 04:34:24;;;;;;;11.50;1.73;;;9.90;99.90;;;;;;5069438;28;20055;-64
2023/12/18 04:36:52;;;;;;;11.25;3.17;;;9.90;99.90;;;;;;5066061;28;20058;-64
2023/12/18 04:39:19;;;;;;;9.43;1.48;;;9.90;99.90;;;;;;5073629;28;20336;-63
2023/12/18 04:41:46;;;;;;;13.63;2.58;;;9.90;99.90;;;;;;5065941;28;20122;-64
2023/12/18 04:44:14;;;;;;;8.50;1.50;;;9.90;99.90;;;;;;5076543;28;20199;-63
2023/12/18 04:46:40;;;;;;;8.10;1.92;;;9.90;99.90;;;;;;5070150;28;20102;-64
2023/12/18 04:49:09;;;;;;;14.65;1.50;;;9.90;99.90;;;;;;5067873;28;20052;-65
2023/12/18 04:51:36;;;;;;;6.70;1.70;;;9.90;99.90;;;;;;5068660;28;20408;-63
2023/12/18 04:54:03;;;;;;;11.68;2.05;;;9.90;99.90;;;;;;5068623;28;20556;-63
2023/12/18 04:56:29;;;;;;;6.60;1.27;;;9.90;99.90;;;;;;5069661;28;20051;-63
2023/12/18 04:58:56;;;;;;;10.40;1.77;;;9.90;99.90;;;;;;5069999;28;20053;-64
2023/12/18 05:01:23;;;;;;;13.00;1.70;;;9.90;99.90;;;;;;5069543;28;20102;-64
2023/12/18 05:03:50;;;;;;;5.97;1.35;;;9.90;99.90;;;;;;5071388;28;20383;-65
2023/12/18 05:06:27;;;;;;;13.38;2.10;;;9.90;99.90;;;;;;5069474;28;20506;-64
2023/12/18 05:08:54;;;;;;;5.95;1.38;;;9.90;99.90;;;;;;5062698;28;20131;-65
2023/12/18 05:11:23;;;;;;;6.75;2.53;;;9.90;99.90;;;;;;5051522;28;20048;-64
2023/12/18 05:13:49;;;;;;;13.90;1.20;;;9.90;99.90;;;;;;5084926;28;20078;-64
2023/12/18 05:16:17;;;;;;;6.95;1.73;;;9.90;99.90;;;;;;5069410;28;20461;-64
2023/12/18 05:18:43;;;;;;;8.80;1.40;;;9.90;99.90;;;;;;5074951;28;20048;-64
2023/12/18 05:21:11;;;;;;;10.40;1.60;;;9.90;99.90;;;;;;5018618;28;20041;-65
2023/12/18 05:23:40;;;;;;;12.73;2.35;;;9.90;99.90;;;;;;5067798;28;20492;-64
2023/12/18 05:26:07;;;;;;;9.80;1.90;;;9.90;99.90;;;;;;5084293;28;20041;-64
2023/12/18 05:28:34;;;;;;;6.55;1.58;;;9.90;99.90;;;;;;5071102;28;20522;-64
2023/12/18 05:31:01;;;;;;;7.40;1.38;;;9.90;99.90;;;;;;5069169;28;20037;-64
2023/12/18 05:33:28;;;;;;;12.18;1.88;;;9.90;99.90;;;;;;5068861;28;20040;-64
2023/12/18 05:35:55;;;;;;;11.90;1.48;;;9.90;99.90;;;;;;5069702;28;20044;-64
2023/12/18 05:38:21;;;;;;;9.43;1.55;;;9.90;99.90;;;;;;5077102;28;20521;-64
2023/12/18 05:40:48;;;;;;;11.20;1.77;;;9.90;99.90;;;;;;5072779;28;20074;-64
2023/12/18 05:43:15;;;;;;;9.77;2.65;;;9.90;99.90;;;;;;5052729;28;20040;-64
2023/12/18 05:45:42;;;;;;;8.77;1.35;;;9.90;99.90;;;;;;5069182;28;20068;-64
2023/12/18 05:48:09;;;;;;;21.77;2.00;;;9.90;99.90;;;;;;5068943;28;20094;-63
2023/12/18 05:50:36;;;;;;;13.85;1.65;;;9.80;99.90;;;;;;5068129;28;20498;-64
2023/12/18 05:53:02;;;;;;;8.10;1.98;;;9.90;99.90;;;;;;5069135;28;20062;-64
2023/12/18 05:55:29;;;;;;;11.52;2.85;;;9.90;99.90;;;;;;5067980;28;20048;-64
2023/12/18 05:57:56;;;;;;;11.18;2.95;;;9.90;99.90;;;;;;5068987;28;20048;-64
2023/12/18 06:00:23;;;;;;;11.32;1.42;;;9.90;99.90;;;;;;5068291;28;20056;-64
2023/12/18 06:02:50;;;;;;;6.45;1.30;;;9.80;99.90;;;;;;5068101;28;20045;-64
2023/12/18 06:05:17;;;;;;;8.10;1.42;;;9.90;99.90;;;;;;5067588;28;20059;-64
2023/12/18 06:07:43;;;;;;;9.52;1.35;;;9.90;99.90;;;;;;5050709;28;20143;-64
2023/12/18 06:10:10;;;;;;;6.45;1.23;;;9.90;99.90;;;;;;5068064;28;20048;-64
2023/12/18 06:12:37;;;;;;;12.93;1.48;;;9.90;99.90;;;;;;5068275;28;20118;-64
2023/12/18 06:15:05;;;;;;;11.23;1.98;;;9.90;99.90;;;;;;5068797;28;20045;-64
2023/12/18 06:17:32;;;;;;;8.10;1.48;;;9.90;99.90;;;;;;5083247;28;20036;-64
2023/12/18 06:19:59;;;;;;;8.95;1.30;;;9.90;99.90;;;;;;5061511;28;20086;-64
2023/12/18 06:22:26;;;;;;;7.57;1.23;;;9.90;99.90;;;;;;5048869;28;20142;-64
2023/12/18 06:24:53;;;;;;;10.73;1.73;;;9.90;99.90;;;;;;5058089;28;20048;-68
2023/12/18 06:27:20;;;;;;;17.17;2.40;;;9.90;99.90;;;;;;5066478;28;20049;-63
2023/12/18 06:29:46;;;;;;;7.47;2.33;;;9.90;99.90;;;;;;5067590;28;20477;-63
2023/12/18 06:32:14;;;;;;;11.27;1.88;;;9.90;99.90;;;;;;5066870;28;20048;-64
2023/12/18 06:34:42;;;;;;;7.30;2.00;;;10.00;99.90;;;;;;5067295;28;20044;-64
2023/12/18 06:37:09;;;;;;;11.05;1.88;;;9.90;99.90;;;;;;5071797;28;20373;-65
2023/12/18 06:39:36;;;;;;;11.70;2.17;;;10.00;99.90;;;;;;5071948;28;20511;-63
2023/12/18 06:42:03;;;;;;;13.05;2.40;;;10.00;99.90;;;;;;5078805;28;20075;-63
2023/12/18 06:44:31;;;;;;;10.73;1.55;;;10.10;99.90;;;;;;5074603;28;20055;-63
2023/12/18 06:46:57;;;;;;;11.00;1.85;;;10.00;99.90;;;;;;5078309;28;20059;-63
2023/12/18 06:49:24;;;;;;;9.00;1.48;;;10.10;99.90;;;;;;5074726;28;20555;-64
2023/12/18 06:51:51;;;;;;;9.27;1.80;;;10.10;99.90;;;;;;5056981;28;20083;-65
2023/12/18 06:54:18;;;;;;;8.30;1.67;;;10.10;99.90;;;;;;5073173;28;20109;-65
2023/12/18 06:56:45;;;;;;;6.70;1.83;;;10.10;99.90;;;;;;5074932;28;20520;-63
2023/12/18 06:59:12;;;;;;;5.40;1.50;;;10.10;99.90;;;;;;5074978;28;20051;-63
2023/12/18 07:01:39;;;;;;;12.52;1.90;;;10.00;99.90;;;;;;5071893;28;20055;-64
2023/12/18 07:04:06;;;;;;;11.35;1.88;;;10.00;99.90;;;;;;5073418;28;20164;-63
2023/12/18 07:06:33;;;;;;;7.45;1.92;;;10.10;99.90;;;;;;5073465;28;20518;-64
2023/12/18 07:09:00;;;;;;;7.25;1.40;;;10.10;99.90;;;;;;5070397;28;20049;-64
2023/12/18 07:11:27;;;;;;;9.32;1.75;;;10.00;99.90;;;;;;5056843;28;20054;-65
2023/12/18 07:13:54;;;;;;;10.27;2.50;;;10.00;99.90;;;;;;5054655;28;20487;-64
2023/12/18 07:16:24;;;;;;;8.77;2.85;;;10.00;99.90;;;;;;5052936;28;20494;-63
2023/12/18 07:18:51;;;;;;;6.00;1.38;;;10.00;99.90;;;;;;5077382;28;20060;-64
2023/12/18 07:21:18;;;;;;;12.18;2.42;;;10.00;99.90;;;;;;5075412;28;20453;-64
2023/12/18 07:23:45;;;;;;;6.22;2.33;;;10.00;99.90;;;;;;5072534;28;20132;-63
2023/12/18 07:26:13;;;;;;;17.73;2.17;;;10.00;99.90;;;;;;5075273;28;20044;-64
2023/12/18 07:28:41;;;;;;;15.13;3.20;;;10.00;99.90;;;;;;5076202;28;20530;-64
2023/12/18 07:31:08;;;;;;;11.85;1.88;;;10.10;99.90;;;;;;5075594;28;20464;-64
2023/12/18 07:33:35;;;;;;;8.75;2.00;;;10.10;99.90;;;;;;5075219;28;20079;-63
2023/12/18 07:36:03;;;;;;;10.57;1.35;;;10.10;99.90;;;;;;5057153;28;20063;-62
2023/12/18 07:38:30;;;;;;;6.50;1.88;;;10.10;99.90;;;;;;5077339;28;20040;-63
2023/12/18 07:40:57;;;;;;;9.63;1.85;;;10.10;99.90;;;;;;5076436;28;20320;-63
2023/12/18 07:43:24;;;;;;;11.60;3.65;;;10.20;99.90;;;;;;5074753;28;20478;-62
2023/12/18 07:45:51;;;;;;;12.68;3.08;;;10.20;99.90;;;;;;5055711;28;20490;-63
2023/12/18 07:48:21;;;;;;;16.08;1.88;;;10.20;99.90;;;;;;5070150;28;20051;-62
2023/12/18 07:50:55;;;;;;;12.68;1.92;;;10.20;99.90;;;;;;5073659;28;20045;-63
2023/12/18 07:53:23;;;;;;;9.88;1.58;;;10.20;99.90;;;;;;5064051;28;20549;-62
2023/12/18 07:55:49;;;;;;;16.05;3.47;;;10.20;99.90;;;;;;5078137;28;20040;-62
2023/12/18 07:58:19;;;;;;;11.18;1.70;;;10.20;99.90;;;;;;5068863;28;20046;-62
2023/12/18 08:00:46;;;;;;;13.20;2.53;;;10.20;99.90;;;;;;5071526;28;20100;-66
2023/12/18 08:03:13;;;;;;;9.68;1.88;;;10.20;99.90;;;;;;5078411;28;20036;-62
2023/12/18 08:05:40;;;;;;;11.00;1.98;;;10.20;99.90;;;;;;5052229;28;20076;-62
2023/12/18 08:08:07;;;;;;;13.75;2.67;;;10.20;99.90;;;;;;5068555;28;20105;-62
2023/12/18 08:10:34;;;;;;;12.88;2.22;;;10.10;99.90;;;;;;5074738;28;20126;-64
2023/12/18 08:13:00;;;;;;;15.60;2.90;;;10.10;99.90;;;;;;5072474;28;20094;-63
2023/12/18 08:15:27;;;;;;;13.00;2.40;;;10.10;99.90;;;;;;5070043;28;20047;-61
2023/12/18 08:17:54;;;;;;;6.30;1.83;;;10.10;99.90;;;;;;5068103;28;20428;-63
2023/12/18 08:20:21;;;;;;;13.30;2.53;;;10.10;99.90;;;;;;5078840;28;20051;-63
2023/12/18 08:22:48;;;;;;;10.52;1.70;;;10.10;99.90;;;;;;5068630;28;20117;-62
2023/12/18 08:25:15;;;;;;;20.27;3.25;;;10.10;99.90;;;;;;5074107;28;20072;-62
2023/12/18 08:27:42;;;;;;;12.30;1.95;;;10.10;99.90;;;;;;5068435;28;20048;-62
2023/12/18 08:30:10;;;;;;;7.88;1.80;;;10.10;99.90;;;;;;5069526;28;20166;-62
2023/12/18 08:32:40;;;;;;;17.30;1.63;;;10.20;99.90;;;;;;5057757;28;20040;-62
2023/12/18 08:35:07;;;;;;;12.80;2.00;;;10.20;99.90;;;;;;5073465;28;20197;-63
2023/12/18 08:37:34;;;;;;;5.82;1.70;;;10.20;99.90;;;;;;5069101;28;20049;-63
2023/12/18 08:40:01;;;;;;;11.73;1.88;;;10.20;99.90;;;;;;5078548;28;20066;-63
2023/12/18 08:42:28;;;;;;;13.15;1.55;;;10.20;99.90;;;;;;5078344;28;20048;-63
2023/12/18 08:44:55;;;;;;;16.27;2.00;;;10.20;99.90;;;;;;5074091;28;20079;-62
2023/12/18 08:47:24;;;;;;;17.50;4.63;;;10.20;99.90;;;;;;5060376;28;20040;-63
2023/12/18 08:49:51;;;;;;;6.32;2.13;;;10.30;99.90;;;;;;5078938;28;20044;-63
2023/12/18 08:52:17;;;;;;;7.07;1.73;;;10.30;99.90;;;;;;5073172;28;20093;-67
2023/12/18 08:54:44;;;;;;;15.00;2.08;;;10.30;99.90;;;;;;5067594;28;20048;-63
2023/12/18 08:57:11;;;;;;;11.80;1.40;;;10.30;99.90;;;;;;5071075;28;20559;-62
2023/12/18 08:59:38;;;;;;;10.10;2.28;;;10.30;99.90;;;;;;5070985;28;20147;-63
2023/12/18 09:02:05;;;;;;;13.75;1.70;;;10.30;99.90;;;;;;5072643;28;20691;-63
2023/12/18 09:04:32;;;;;;;14.00;1.83;;;10.30;99.90;;;;;;5074835;28;20519;-63
2023/12/18 09:06:59;;;;;;;8.25;1.77;;;10.30;99.90;;;;;;5079142;28;20146;-62
2023/12/18 09:09:26;;;;;;;14.95;2.08;;;10.30;99.90;;;;;;5077499;28;20046;-63
2023/12/18 09:11:53;;;;;;;14.15;2.47;;;10.30;99.90;;;;;;5078182;28;20437;-63
2023/12/18 09:14:20;;;;;;;7.43;1.85;;;10.40;99.90;;;;;;5077860;28;20052;-63
2023/12/18 09:16:47;;;;;;;11.85;1.77;;;10.40;99.90;;;;;;5075285;28;20044;-63
2023/12/18 09:19:14;;;;;;;13.95;2.75;;;10.40;99.90;;;;;;5073947;28;20044;-65
2023/12/18 09:21:41;;;;;;;12.27;2.55;;;10.40;99.90;;;;;;5060336;28;20049;-63
2023/12/18 09:24:08;;;;;;;14.38;2.75;;;10.50;99.90;;;;;;5051892;28;20053;-63
2023/12/18 09:26:35;;;;;;;15.65;2.92;;;10.50;99.90;;;;;;5077212;28;20533;-62
2023/12/18 09:29:02;;;;;;;11.93;3.17;;;10.50;99.90;;;;;;5070880;28;20056;-63
2023/12/18 09:31:29;;;;;;;12.30;2.63;;;10.50;99.90;;;;;;5073743;28;20060;-63
2023/12/18 09:33:56;;;;;;;9.70;2.17;;;10.50;99.90;;;;;;5077581;28;20040;-63
2023/12/18 09:36:24;;;;;;;14.32;2.13;;;10.50;99.90;;;;;;5077939;28;20056;-63
2023/12/18 09:38:50;;;;;;;11.00;2.88;;;10.50;99.90;;;;;;5052110;28;20047;-63
2023/12/18 09:41:22;;;;;;;15.07;2.50;;;10.50;99.90;;;;;;5067446;28;20147;-63
2023/12/18 09:43:53;;;;;;;12.73;1.70;;;10.50;99.90;;;;;;5072992;28;20051;-64
2023/12/18 09:46:23;;;;;;;11.10;2.75;;;10.60;99.90;;;;;;5079210;28;20516;-63
2023/12/18 09:48:51;;;;;;;10.30;2.65;;;10.60;99.90;;;;;;5058129;28;20044;-63
2023/12/18 09:51:20;;;;;;;19.13;4.53;;;10.60;99.90;;;;;;5055742;28;20043;-63
2023/12/18 09:53:48;;;;;;;11.90;2.65;;;10.60;99.90;;;;;;5054157;28;20064;-63
2023/12/18 09:56:16;;;;;;;14.23;2.20;;;10.60;99.90;;;;;;5089775;28;20044;-63
2023/12/18 09:58:43;;;;;;;13.65;1.85;;;10.60;99.90;;;;;;5076709;28;20058;-63
2023/12/18 10:01:10;;;;;;;31.27;5.55;;;10.60;99.90;;;;;;5054993;28;20575;-63
2023/12/18 10:03:37;;;;;;;8.90;2.33;;;10.70;99.90;;;;;;5060855;28;20048;-63
2023/12/18 10:06:04;;;;;;;9.95;2.63;;;10.70;99.90;;;;;;5072546;28;20127;-63
2023/12/18 10:08:31;;;;;;;10.05;2.22;;;10.80;99.90;;;;;;5071290;28;20048;-63
2023/12/18 10:10:58;;;;;;;12.15;2.92;;;10.80;99.90;;;;;;5049932;28;20421;-63
2023/12/18 10:13:25;;;;;;;10.90;2.92;;;10.90;99.90;;;;;;5083277;28;20255;-63
2023/12/18 10:15:53;;;;;;;9.70;2.00;;;10.90;99.90;;;;;;5080067;28;20109;-63
2023/12/18 10:18:23;;;;;;;9.55;2.08;;;10.90;99.90;;;;;;5057636;28;20207;-63
2023/12/18 10:20:51;;;;;;;7.20;2.10;;;10.90;99.90;;;;;;5066078;28;20049;-62
2023/12/18 10:23:17;;;;;;;7.05;2.25;;;10.90;99.90;;;;;;5059923;28;20049;-62
2023/12/18 10:25:44;;;;;;;18.65;2.47;;;10.90;99.90;;;;;;5086828;28;20526;-64
2023/12/18 10:28:12;;;;;;;14.07;2.13;;;10.90;99.90;;;;;;5067675;28;20052;-63
2023/12/18 10:30:39;;;;;;;21.48;3.42;;;10.90;99.90;;;;;;5067669;28;20427;-63
2023/12/18 10:33:09;;;;;;;18.38;2.28;;;11.00;99.90;;;;;;5059213;28;20052;-63
2023/12/18 10:35:37;;;;;;;15.02;2.28;;;11.00;99.90;;;;;;5064282;28;20207;-62
2023/12/18 10:38:09;;;;;;;9.65;2.47;;;11.00;99.90;;;;;;5081362;28;20471;-65
2023/12/18 10:40:36;;;;;;;9.98;2.20;;;11.00;99.90;;;;;;5066882;28;20060;-63
2023/12/18 10:43:23;;;;;;;9.52;1.50;;;11.00;99.90;;;;;;5082221;28;20064;-64
2023/12/18 10:45:52;;;;;;;12.65;1.88;;;11.00;99.90;;;;;;5067013;28;20036;-63
2023/12/18 10:48:20;;;;;;;11.77;2.13;;;11.00;99.90;;;;;;5066873;28;20099;-63
2023/12/18 10:50:51;;;;;;;15.88;2.00;;;11.10;99.90;;;;;;5067376;28;20223;-63
2023/12/18 10:53:18;;;;;;;12.13;2.72;;;11.10;99.90;;;;;;5046805;28;20044;-63
2023/12/18 10:55:45;;;;;;;14.88;1.98;;;11.10;99.90;;;;;;5032118;28;20056;-63
2023/12/18 10:58:12;;;;;;;18.70;2.88;;;11.10;99.90;;;;;;5031060;28;20058;-63
2023/12/18 11:00:39;;;;;;;19.25;3.70;;;11.10;99.90;;;;;;5082377;28;20162;-63
2023/12/18 11:03:06;;;;;;;11.35;2.13;;;11.10;99.90;;;;;;5048283;28;20365;-64
2023/12/18 11:05:33;;;;;;;17.40;2.65;;;11.20;99.90;;;;;;5049293;28;20567;-63
2023/12/18 11:08:00;;;;;;;10.70;2.55;;;11.20;99.90;;;;;;5048805;28;20399;-63
2023/12/18 11:10:26;;;;;;;15.43;2.58;;;11.20;99.90;;;;;;5047118;28;20044;-63
2023/12/18 11:13:17;;;;;;;9.63;2.05;;;11.20;99.90;;;;;;5066921;28;20048;-63
2023/12/18 11:16:11;;;;;;;8.50;1.98;;;11.20;99.90;;;;;;5048430;28;20052;-63
2023/12/18 11:18:50;;;;;;;10.02;1.98;;;11.20;99.90;;;;;;5050247;28;20067;-63
2023/12/18 11:21:17;;;;;;;11.75;2.03;;;11.20;99.90;;;;;;5065576;28;20052;-64
2023/12/18 11:23:45;;;;;;;13.10;2.28;;;11.10;99.90;;;;;;5064889;28;20574;-62
2023/12/18 11:26:16;;;;;;;14.63;3.05;;;11.10;99.90;;;;;;5048022;28;20075;-63
2023/12/18 11:28:43;;;;;;;15.77;2.25;;;11.20;99.90;;;;;;5065361;28;20044;-62
2023/12/18 11:31:13;;;;;;;12.65;2.10;;;11.20;99.90;;;;;;5074626;28;20053;-62
2023/12/18 11:34:00;;;;;;;12.15;3.22;;;11.20;99.90;;;;;;5065621;28;20228;-63
2023/12/18 11:36:27;;;;;;;15.73;2.45;;;11.30;99.90;;;;;;5045878;28;20495;-63
2023/12/18 11:38:55;;;;;;;15.38;2.15;;;11.30;99.90;;;;;;5065249;28;20048;-63
2023/12/18 11:41:42;;;;;;;12.25;2.53;;;11.30;99.90;;;;;;5065571;28;20128;-64
2023/12/18 11:44:11;;;;;;;12.90;2.00;;;11.30;99.90;;;;;;5045028;28;20049;-63
2023/12/18 11:46:38;;;;;;;18.92;3.08;;;11.40;99.90;;;;;;5039856;28;20044;-63
2023/12/18 11:49:06;;;;;;;10.68;2.70;;;11.40;99.90;;;;;;5047286;28;20109;-63
2023/12/18 11:51:34;;;;;;;8.68;2.08;;;11.50;99.90;;;;;;5064438;28;20456;-64
2023/12/18 11:54:02;;;;;;;9.35;2.35;;;11.50;99.90;;;;;;5047177;28;20044;-64
2023/12/18 11:56:40;;;;;;;17.17;2.95;;;11.60;99.90;;;;;;5065087;28;20264;-63
2023/12/18 11:59:08;;;;;;;8.88;1.88;;;11.60;99.90;;;;;;5065115;28;20055;-63
2023/12/18 12:01:36;;;;;;;10.50;1.80;;;11.60;99.90;;;;;;5063794;28;20064;-63
2023/12/18 12:04:03;;;;;;;20.63;2.25;;;11.70;99.90;;;;;;5065513;28;20505;-63
2023/12/18 12:06:30;;;;;;;13.48;2.03;;;11.70;99.90;;;;;;5063548;28;20590;-63
2023/12/18 12:08:57;;;;;;;21.83;3.88;;;11.80;99.90;;;;;;5047536;28;20040;-62
2023/12/18 12:11:24;;;;;;;18.45;2.20;;;11.80;99.90;;;;;;5065212;28;20048;-62
2023/12/18 12:13:54;;;;;;;16.52;2.33;;;11.90;99.90;;;;;;5046809;28;20098;-62
2023/12/18 12:16:21;;;;;;;11.02;2.05;;;11.90;99.90;;;;;;5061662;28;20564;-62
2023/12/18 12:18:54;;;;;;;10.20;1.65;;;11.90;99.90;;;;;;5065532;28;20121;-62
2023/12/18 12:21:23;;;;;;;14.57;1.70;;;11.90;99.90;;;;;;5065591;28;20044;-63
2023/12/18 12:24:01;;;;;;;12.95;2.35;;;11.90;99.90;;;;;;5063270;28;20134;-63
2023/12/18 12:26:28;;;;;;;10.18;2.20;;;11.80;99.90;;;;;;5062840;28;20466;-62
2023/12/18 12:28:54;;;;;;;11.23;1.73;;;11.90;99.90;;;;;;5065739;28;20496;-63
2023/12/18 12:31:21;;;;;;;14.23;2.22;;;11.90;99.90;;;;;;5063977;28;20071;-63
2023/12/18 12:33:48;;;;;;;9.70;2.08;;;11.90;99.90;;;;;;5066240;28;20053;-63
2023/12/18 12:36:21;;;;;;;8.88;1.70;;;11.90;99.90;;;;;;5065606;28;20047;-63
2023/12/18 12:38:48;;;;;;;16.00;1.98;;;12.00;99.90;;;;;;5056158;28;20052;-62
2023/12/18 12:41:15;;;;;;;9.60;1.77;;;12.00;99.90;;;;;;5065953;28;20049;-63
2023/12/18 12:43:44;;;;;;;13.30;2.35;;;12.00;99.90;;;;;;5066347;28;20052;-63
2023/12/18 12:46:11;;;;;;;14.48;1.90;;;11.90;99.90;;;;;;5047034;28;20052;-62